createdAt,value
2023-01-08T00:03:33.871Z,11.40
2023-01-08T00:08:33.645Z,12.40
2023-01-08T00:13:33.513Z,12.00
2023-01-08T00:18:33.420Z,11.60
2023-01-08T00:23:33.364Z,12.70
2023-01-08T00:28:33.355Z,11.80
2023-01-08T00:33:33.279Z,12.50
2023-01-08T00:38:33.158Z,12.50
2023-01-08T00:43:33.125Z,13.30
2023-01-08T00:48:33.087Z,11.50
2023-01-08T00:53:33.014Z,13.30
2023-01-08T00:58:32.945Z,14.10
2023-01-08T01:03:32.960Z,13.40
2023-01-08T01:08:32.813Z,12.30
2023-01-08T01:13:32.780Z,13.50
2023-01-08T01:18:32.676Z,13.60
2023-01-08T01:23:32.625Z,11.70
2023-01-08T01:28:32.538Z,12.80
2023-01-08T01:33:32.479Z,11.80
2023-01-08T01:38:32.383Z,11.90
2023-01-08T01:43:32.350Z,12.40
2023-01-08T01:48:32.300Z,12.00
2023-01-08T01:53:32.215Z,12.80
2023-01-08T01:58:32.186Z,12.20
2023-01-08T02:03:32.082Z,14.00
2023-01-08T02:08:32.023Z,13.50
2023-01-08T02:13:31.939Z,13.90
2023-01-08T02:18:31.913Z,12.60
2023-01-08T02:23:31.842Z,11.80
2023-01-08T02:28:31.759Z,11.50
2023-01-08T02:33:31.697Z,12.60
2023-01-08T02:38:31.643Z,14.70
2023-01-08T02:43:31.544Z,13.30
2023-01-08T02:48:31.480Z,12.70
2023-01-08T02:53:31.443Z,14.30
2023-01-08T02:58:31.388Z,15.10
2023-01-08T03:03:31.313Z,15.90
2023-01-08T03:08:31.211Z,16.00
2023-01-08T03:13:31.179Z,15.80
2023-01-08T03:18:31.084Z,16.70
2023-01-08T03:23:31.083Z,16.80
2023-01-08T03:28:30.942Z,15.90
2023-01-08T03:33:30.911Z,17.70
2023-01-08T03:38:30.801Z,15.50
2023-01-08T03:43:30.771Z,17.10
2023-01-08T03:48:30.702Z,18.40
2023-01-08T03:53:30.627Z,15.10
2023-01-08T03:58:30.601Z,17.80
2023-01-08T04:03:30.521Z,19.70
2023-01-08T04:08:30.443Z,18.00
2023-01-08T04:13:30.423Z,19.60
2023-01-08T04:18:30.331Z,17.60
2023-01-08T04:23:30.264Z,18.00
2023-01-08T04:28:30.221Z,16.00
2023-01-08T04:33:30.164Z,16.30
2023-01-08T04:38:30.071Z,15.70
2023-01-08T04:43:29.987Z,16.70
2023-01-08T04:48:29.948Z,17.10
2023-01-08T04:53:29.862Z,13.90
2023-01-08T04:58:29.799Z,16.50
2023-01-08T05:03:29.826Z,17.70
2023-01-08T05:08:29.665Z,17.00
2023-01-08T05:13:29.636Z,18.80
2023-01-08T05:18:29.517Z,16.30
2023-01-08T05:23:29.479Z,18.20
2023-01-08T05:28:29.408Z,18.80
2023-01-08T05:33:29.326Z,19.40
2023-01-08T05:38:29.280Z,19.70
2023-01-08T05:43:29.212Z,19.90
2023-01-08T05:48:29.183Z,18.60
2023-01-08T05:53:29.061Z,20.80
2023-01-08T05:58:29.052Z,20.70
2023-01-08T06:03:28.994Z,22.00
2023-01-08T06:08:28.897Z,22.70
2023-01-08T06:13:28.861Z,22.80
2023-01-08T06:18:28.749Z,22.90
2023-01-08T06:23:28.665Z,21.40
2023-01-08T06:28:28.614Z,23.40
2023-01-08T06:33:28.538Z,25.40
2023-01-08T06:38:28.520Z,23.20
2023-01-08T06:43:28.395Z,24.80
2023-01-08T06:48:28.376Z,23.90
2023-01-08T06:53:28.266Z,26.20
2023-01-08T06:58:28.307Z,23.10
2023-01-08T07:03:28.410Z,24.80
2023-01-08T07:08:28.065Z,21.80
2023-01-08T07:13:28.036Z,23.10
2023-01-08T07:18:28.530Z,23.10
2023-01-08T07:23:27.901Z,23.90
2023-01-08T07:28:27.827Z,20.70
2023-01-08T07:33:27.781Z,21.40
2023-01-08T07:38:27.697Z,21.50
2023-01-08T07:43:27.635Z,22.80
2023-01-08T07:48:27.593Z,22.10
2023-01-08T07:53:27.511Z,19.10
2023-01-08T07:58:27.623Z,20.30
2023-01-08T08:03:27.498Z,19.50
2023-01-08T08:08:27.336Z,18.20
2023-01-08T08:13:27.315Z,18.80
2023-01-08T08:18:28.044Z,19.30
2023-01-08T08:23:27.114Z,17.80
2023-01-08T08:28:27.083Z,17.30
2023-01-08T08:33:27.023Z,19.30
2023-01-08T08:38:26.962Z,17.30
2023-01-08T08:43:26.910Z,17.40
2023-01-08T08:48:27.686Z,15.20
2023-01-08T08:53:27.773Z,16.20
2023-01-08T08:58:26.766Z,16.60
2023-01-08T09:03:26.675Z,16.80
2023-01-08T09:08:26.544Z,16.80
2023-01-08T09:13:26.797Z,15.30
2023-01-08T09:18:26.517Z,15.80
2023-01-08T09:23:26.422Z,15.60
2023-01-08T09:28:26.317Z,14.60
2023-01-08T09:33:26.252Z,13.80
2023-01-08T09:38:28.237Z,16.00
2023-01-08T09:43:26.117Z,14.70
2023-01-08T09:48:26.036Z,16.00
2023-01-08T09:53:25.927Z,15.30
2023-01-08T09:58:25.856Z,14.10
2023-01-08T10:03:26.336Z,15.60
2023-01-08T10:08:25.769Z,15.40
2023-01-08T10:13:25.765Z,14.90
2023-01-08T10:18:25.660Z,14.60
2023-01-08T10:23:25.597Z,16.30
2023-01-08T10:28:25.485Z,13.80
2023-01-08T10:33:25.500Z,16.90
2023-01-08T10:38:25.426Z,14.80
2023-01-08T10:43:25.319Z,16.60
2023-01-08T10:48:25.285Z,17.70
2023-01-08T10:53:25.183Z,15.10
2023-01-08T10:58:25.215Z,15.70
2023-01-08T11:03:25.090Z,14.60
2023-01-08T11:08:25.148Z,13.70
2023-01-08T11:13:24.946Z,13.40
2023-01-08T11:18:24.868Z,15.30
2023-01-08T11:23:24.868Z,14.80
2023-01-08T11:28:24.767Z,14.10
2023-01-08T11:33:24.660Z,14.20
2023-01-08T11:38:24.876Z,14.50
2023-01-08T11:43:24.543Z,13.20
2023-01-08T11:48:24.541Z,14.00
2023-01-08T11:53:24.593Z,13.10
2023-01-08T11:58:24.497Z,13.50
2023-01-08T12:03:24.443Z,14.20
2023-01-08T12:08:24.295Z,13.70
2023-01-08T12:13:24.199Z,15.40
2023-01-08T12:18:24.090Z,14.60
2023-01-08T12:23:24.024Z,14.60
2023-01-08T12:28:23.958Z,14.10
2023-01-08T12:33:23.892Z,16.10
2023-01-08T12:38:23.817Z,14.90
2023-01-08T12:43:23.766Z,15.30
2023-01-08T12:48:23.694Z,14.10
2023-01-08T12:53:23.719Z,14.70
2023-01-08T12:58:23.590Z,15.30
2023-01-08T13:03:23.804Z,15.80
2023-01-08T13:08:23.454Z,15.80
2023-01-08T13:13:23.537Z,16.10
2023-01-08T13:18:23.892Z,15.00
2023-01-08T13:23:23.223Z,17.80
2023-01-08T13:28:23.181Z,18.80
2023-01-08T13:33:23.087Z,17.90
2023-01-08T13:38:23.103Z,17.70
2023-01-08T13:43:23.440Z,18.50
2023-01-08T13:48:23.002Z,18.00
2023-01-08T13:53:22.808Z,17.00
2023-01-08T13:58:22.816Z,15.80
2023-01-08T14:03:22.718Z,18.30
2023-01-08T14:08:22.644Z,18.00
2023-01-08T14:13:22.531Z,17.10
2023-01-08T14:18:22.572Z,17.00
2023-01-08T14:23:22.768Z,18.40
2023-01-08T14:28:22.353Z,18.70
2023-01-08T14:33:22.479Z,17.60
2023-01-08T14:38:22.274Z,18.70
2023-01-08T14:43:22.177Z,19.20
2023-01-08T14:48:22.142Z,18.30
2023-01-08T14:53:22.021Z,19.20
2023-01-08T14:58:22.077Z,26.80
2023-01-08T15:03:23.147Z,22.60
2023-01-08T15:08:21.871Z,25.80
2023-01-08T15:13:21.842Z,31.40
2023-01-08T15:18:21.721Z,25.60
2023-01-08T15:23:21.638Z,21.60
2023-01-08T15:28:21.592Z,23.00
2023-01-08T15:33:21.535Z,22.40
2023-01-08T15:38:21.464Z,26.30
2023-01-08T15:43:21.401Z,20.70
2023-01-08T15:48:21.328Z,23.40
2023-01-08T15:53:21.359Z,21.80
2023-01-08T15:58:21.166Z,23.90
2023-01-08T16:03:21.533Z,22.70
2023-01-08T16:08:21.039Z,21.40
2023-01-08T16:13:21.094Z,23.40
2023-01-08T16:18:20.922Z,19.60
2023-01-08T16:23:20.881Z,20.30
2023-01-08T16:28:20.849Z,19.60
2023-01-08T16:33:20.709Z,19.90
2023-01-08T16:38:20.646Z,20.40
2023-01-08T16:43:20.578Z,23.80
2023-01-08T16:48:20.605Z,20.90
2023-01-08T16:53:20.439Z,23.30
2023-01-08T16:58:20.562Z,20.50
2023-01-08T17:03:20.374Z,19.50
2023-01-08T17:08:20.290Z,22.80
2023-01-08T17:13:20.264Z,18.50
2023-01-08T17:18:20.113Z,17.00
2023-01-08T17:23:20.055Z,15.50
2023-01-08T17:28:20.166Z,16.80
2023-01-08T17:33:19.959Z,15.40
2023-01-08T17:38:20.160Z,16.80
2023-01-08T17:43:19.904Z,17.60
2023-01-08T17:48:19.800Z,17.70
2023-01-08T17:53:19.679Z,17.30
2023-01-08T17:58:19.596Z,18.10
2023-01-08T18:03:19.591Z,20.30
2023-01-08T18:08:19.449Z,21.40
2023-01-08T18:13:19.437Z,21.90
2023-01-08T18:18:19.393Z,23.90
2023-01-08T18:23:19.283Z,23.80
2023-01-08T18:28:19.222Z,24.20
2023-01-08T18:33:19.210Z,24.90
2023-01-08T18:38:19.092Z,24.20
2023-01-08T18:43:19.049Z,25.30
2023-01-08T18:48:18.979Z,26.20
2023-01-08T18:53:18.879Z,23.70
2023-01-08T18:58:18.834Z,25.50
2023-01-08T19:03:19.047Z,27.60
2023-01-08T19:08:18.701Z,24.60
2023-01-08T19:13:18.695Z,25.30
2023-01-08T19:18:18.555Z,25.50
2023-01-08T19:23:18.551Z,24.50
2023-01-08T19:28:18.497Z,24.40
2023-01-08T19:33:18.380Z,25.00
2023-01-08T19:38:18.575Z,26.60
2023-01-08T19:43:18.361Z,23.40
2023-01-08T19:48:18.435Z,24.20
2023-01-08T19:53:18.158Z,24.90
2023-01-08T19:58:18.105Z,24.40
2023-01-08T20:03:17.964Z,23.50
2023-01-08T20:08:17.878Z,24.40
2023-01-08T20:13:17.829Z,24.00
2023-01-08T20:18:17.769Z,23.60
2023-01-08T20:23:17.736Z,23.60
2023-01-08T20:28:17.640Z,23.60
2023-01-08T20:33:17.918Z,22.80
2023-01-08T20:38:17.507Z,22.70
2023-01-08T20:43:17.449Z,22.20
2023-01-08T20:48:17.376Z,21.50
2023-01-08T20:53:17.396Z,21.70
2023-01-08T20:58:17.284Z,21.30
2023-01-08T21:03:17.208Z,22.90
2023-01-08T21:08:17.128Z,22.40
2023-01-08T21:13:17.117Z,22.70
2023-01-08T21:18:17.025Z,23.20
2023-01-08T21:23:16.955Z,22.80
2023-01-08T21:28:16.892Z,18.70
2023-01-08T21:33:16.819Z,21.40
2023-01-08T21:38:16.752Z,21.60
2023-01-08T21:43:16.670Z,24.10
2023-01-08T21:48:16.677Z,22.10
2023-01-08T21:53:16.566Z,22.50
2023-01-08T21:58:16.501Z,24.50
2023-01-08T22:03:16.425Z,24.60
2023-01-08T22:08:16.396Z,23.80
2023-01-08T22:13:16.264Z,23.00
2023-01-08T22:18:16.236Z,23.30
2023-01-08T22:23:16.204Z,22.80
2023-01-08T22:28:16.272Z,22.40
2023-01-08T22:33:15.991Z,22.20
2023-01-08T22:38:15.956Z,21.30
2023-01-08T22:43:15.876Z,22.30
2023-01-08T22:48:15.843Z,20.50
2023-01-08T22:53:15.936Z,21.30
2023-01-08T22:58:15.728Z,22.90
2023-01-08T23:03:15.692Z,21.00
2023-01-08T23:08:15.616Z,22.60
2023-01-08T23:13:15.478Z,21.70
2023-01-08T23:18:15.414Z,22.50
2023-01-08T23:23:15.365Z,24.30
2023-01-08T23:28:15.283Z,21.90
2023-01-08T23:33:15.219Z,22.10
2023-01-08T23:38:15.155Z,22.40
2023-01-08T23:43:15.098Z,21.40
2023-01-08T23:48:15.016Z,23.10
2023-01-08T23:53:14.952Z,23.70
2023-01-08T23:58:14.924Z,22.90
